Pagrindinis puslapis
METAR-TAF:

METAR-TAF

Oro uostai :

El-Tor, Egiptas

platuma: 28-14N, ilguma: 032-37E, Aukštis: 21 m

Dabartinis oras

Ataskaita buvo paskelbta 36 minutes, ne 19:00 UTC
Vėjas 9 kt iš Šiaurės Vakarų
Temperatūra 23°C
Drėgmė 69%
Slėgis 1015 hPa
Matomumas 10 km arba daugiau
nėra debesų žemiau 1500 m ir nėra kamuolinių lietaus debesų

METAR: HETR 221900Z 31009KT CAVOK 23/17 Q1015

Laikas: 21:36 (19:36 UTC)

Prognozė

Ataskaita buvo paskelbta 2 valandos ir 36 minutes, ne 17:00 UTC
Prognozė galioja nuo 22 metu 18 UTC su 23 metu 24 UTC
Vėjas 8 kt iš Šiaurės/Šiaurės Vakarų su gūsio iki 24 kt
Matomumas 10 km arba daugiau
nėra debesų žemiau 1500 m ir nėra kamuolinių lietaus debesų

TAF: HETR 221700Z 2218/2324 33008G24KT CAVOK

Orai ataskaitas ir orų prognozės (METAR, TAF).

turimą stotys yra geltonos ir raudonos taškus žemėlapyje.

Perkelti pele per norėdami pamatyti stoties vardą.

Tada spustelėkite, norėdami matyti oro stebėjimo ir prognozės.

Norėdami pakeisti žemėlapį: spustelėkite ant žalios mygtukų su juodo kryžiaus žemyn,; žalią mygtuką su brūkšneliu, jei norite nutolinti; arba žalių rodyklių gretimoms žemėlapius.


METAR-TAF: